sensor_id;sensor_type;location;lat;lon;timestamp;P1;durP1;ratioP1;P2;durP2;ratioP2
9007;SDS011;62813;51.424;6.762;2024-03-22T00:00:11;27.30;;;19.03;;
9007;SDS011;62813;51.424;6.762;2024-03-22T00:02:37;26.87;;;19.43;;
9007;SDS011;62813;51.424;6.762;2024-03-22T00:05:03;27.13;;;19.37;;
9007;SDS011;62813;51.424;6.762;2024-03-22T00:07:28;28.87;;;20.17;;
9007;SDS011;62813;51.424;6.762;2024-03-22T00:09:54;24.70;;;18.43;;
9007;SDS011;62813;51.424;6.762;2024-03-22T00:12:19;23.90;;;18.43;;
9007;SDS011;62813;51.424;6.762;2024-03-22T00:14:45;26.10;;;19.53;;
9007;SDS011;62813;51.424;6.762;2024-03-22T00:17:10;26.40;;;18.73;;
9007;SDS011;62813;51.424;6.762;2024-03-22T00:19:35;23.83;;;17.73;;
9007;SDS011;62813;51.424;6.762;2024-03-22T00:22:01;25.33;;;17.50;;
9007;SDS011;62813;51.424;6.762;2024-03-22T00:24:26;25.07;;;18.17;;
9007;SDS011;62813;51.424;6.762;2024-03-22T00:26:52;30.10;;;19.10;;
9007;SDS011;62813;51.424;6.762;2024-03-22T00:29:17;27.47;;;18.20;;
9007;SDS011;62813;51.424;6.762;2024-03-22T00:31:42;29.97;;;19.37;;
9007;SDS011;62813;51.424;6.762;2024-03-22T00:34:08;25.27;;;16.90;;
9007;SDS011;62813;51.424;6.762;2024-03-22T00:36:33;27.40;;;18.27;;
9007;SDS011;62813;51.424;6.762;2024-03-22T00:38:59;24.07;;;17.07;;
9007;SDS011;62813;51.424;6.762;2024-03-22T00:41:24;22.03;;;17.27;;
9007;SDS011;62813;51.424;6.762;2024-03-22T00:43:49;23.87;;;17.63;;
9007;SDS011;62813;51.424;6.762;2024-03-22T00:46:15;24.97;;;17.90;;
9007;SDS011;62813;51.424;6.762;2024-03-22T00:48:40;24.23;;;16.67;;
9007;SDS011;62813;51.424;6.762;2024-03-22T00:51:06;27.23;;;18.60;;
9007;SDS011;62813;51.424;6.762;2024-03-22T00:53:31;26.80;;;17.60;;
9007;SDS011;62813;51.424;6.762;2024-03-22T00:55:57;26.03;;;18.00;;
9007;SDS011;62813;51.424;6.762;2024-03-22T00:58:25;26.47;;;18.93;;
9007;SDS011;62813;51.424;6.762;2024-03-22T01:00:50;26.73;;;19.00;;
9007;SDS011;62813;51.424;6.762;2024-03-22T01:03:16;26.53;;;17.27;;
9007;SDS011;62813;51.424;6.762;2024-03-22T01:05:41;26.07;;;18.57;;
9007;SDS011;62813;51.424;6.762;2024-03-22T01:08:07;28.63;;;19.30;;
9007;SDS011;62813;51.424;6.762;2024-03-22T01:10:33;27.67;;;18.17;;
9007;SDS011;62813;51.424;6.762;2024-03-22T01:12:59;28.07;;;18.40;;
9007;SDS011;62813;51.424;6.762;2024-03-22T01:15:25;23.77;;;17.47;;
9007;SDS011;62813;51.424;6.762;2024-03-22T01:17:52;31.70;;;18.70;;
9007;SDS011;62813;51.424;6.762;2024-03-22T01:20:17;28.57;;;18.53;;
9007;SDS011;62813;51.424;6.762;2024-03-22T01:22:42;27.90;;;18.20;;
9007;SDS011;62813;51.424;6.762;2024-03-22T01:25:08;26.10;;;17.83;;
9007;SDS011;62813;51.424;6.762;2024-03-22T01:27:35;26.13;;;19.03;;
9007;SDS011;62813;51.424;6.762;2024-03-22T01:30:00;26.70;;;18.53;;
9007;SDS011;62813;51.424;6.762;2024-03-22T01:32:25;29.23;;;19.77;;
9007;SDS011;62813;51.424;6.762;2024-03-22T01:34:51;26.17;;;18.43;;
9007;SDS011;62813;51.424;6.762;2024-03-22T01:37:17;28.10;;;18.50;;
9007;SDS011;62813;51.424;6.762;2024-03-22T01:39:43;26.83;;;18.23;;
9007;SDS011;62813;51.424;6.762;2024-03-22T01:42:08;28.63;;;18.73;;
9007;SDS011;62813;51.424;6.762;2024-03-22T01:44:33;29.60;;;18.93;;
9007;SDS011;62813;51.424;6.762;2024-03-22T01:46:59;29.43;;;18.93;;
9007;SDS011;62813;51.424;6.762;2024-03-22T01:49:25;29.77;;;19.17;;
9007;SDS011;62813;51.424;6.762;2024-03-22T01:51:51;29.93;;;18.60;;
9007;SDS011;62813;51.424;6.762;2024-03-22T01:54:16;29.67;;;18.90;;
9007;SDS011;62813;51.424;6.762;2024-03-22T01:56:42;26.37;;;18.90;;
9007;SDS011;62813;51.424;6.762;2024-03-22T01:59:08;29.77;;;19.10;;
9007;SDS011;62813;51.424;6.762;2024-03-22T02:01:33;33.03;;;20.03;;
9007;SDS011;62813;51.424;6.762;2024-03-22T02:04:00;31.47;;;20.10;;
9007;SDS011;62813;51.424;6.762;2024-03-22T02:06:26;28.73;;;19.33;;
9007;SDS011;62813;51.424;6.762;2024-03-22T02:08:51;28.90;;;19.63;;
9007;SDS011;62813;51.424;6.762;2024-03-22T02:11:17;28.67;;;19.07;;
9007;SDS011;62813;51.424;6.762;2024-03-22T02:13:42;25.83;;;19.63;;
9007;SDS011;62813;51.424;6.762;2024-03-22T02:16:08;29.60;;;20.47;;
9007;SDS011;62813;51.424;6.762;2024-03-22T02:18:34;28.47;;;18.83;;
9007;SDS011;62813;51.424;6.762;2024-03-22T02:20:59;31.70;;;20.23;;
9007;SDS011;62813;51.424;6.762;2024-03-22T02:23:34;29.67;;;19.00;;
9007;SDS011;62813;51.424;6.762;2024-03-22T02:26:00;27.43;;;18.37;;
9007;SDS011;62813;51.424;6.762;2024-03-22T02:28:26;31.03;;;19.73;;
9007;SDS011;62813;51.424;6.762;2024-03-22T02:30:51;28.83;;;19.80;;
9007;SDS011;62813;51.424;6.762;2024-03-22T02:33:16;34.90;;;20.13;;
9007;SDS011;62813;51.424;6.762;2024-03-22T02:35:42;33.07;;;20.30;;
9007;SDS011;62813;51.424;6.762;2024-03-22T02:38:08;31.13;;;18.90;;
9007;SDS011;62813;51.424;6.762;2024-03-22T02:40:33;27.93;;;18.27;;
9007;SDS011;62813;51.424;6.762;2024-03-22T02:42:59;29.63;;;20.07;;
9007;SDS011;62813;51.424;6.762;2024-03-22T02:45:24;30.13;;;19.57;;
9007;SDS011;62813;51.424;6.762;2024-03-22T02:47:50;29.27;;;18.20;;
9007;SDS011;62813;51.424;6.762;2024-03-22T02:50:15;30.77;;;19.90;;
9007;SDS011;62813;51.424;6.762;2024-03-22T02:52:41;26.93;;;18.50;;
9007;SDS011;62813;51.424;6.762;2024-03-22T02:55:06;29.93;;;18.63;;
9007;SDS011;62813;51.424;6.762;2024-03-22T02:57:32;26.03;;;18.57;;
9007;SDS011;62813;51.424;6.762;2024-03-22T03:00:00;29.97;;;19.33;;
9007;SDS011;62813;51.424;6.762;2024-03-22T03:02:25;29.37;;;19.20;;
9007;SDS011;62813;51.424;6.762;2024-03-22T03:04:51;26.07;;;17.77;;
9007;SDS011;62813;51.424;6.762;2024-03-22T03:07:16;29.50;;;18.73;;
9007;SDS011;62813;51.424;6.762;2024-03-22T03:09:42;30.20;;;19.67;;
9007;SDS011;62813;51.424;6.762;2024-03-22T03:12:07;26.30;;;17.77;;
9007;SDS011;62813;51.424;6.762;2024-03-22T03:14:32;29.30;;;18.87;;
9007;SDS011;62813;51.424;6.762;2024-03-22T03:16:58;25.17;;;17.83;;
9007;SDS011;62813;51.424;6.762;2024-03-22T03:19:23;30.17;;;19.03;;
9007;SDS011;62813;51.424;6.762;2024-03-22T03:21:49;27.37;;;19.03;;
9007;SDS011;62813;51.424;6.762;2024-03-22T03:24:17;31.23;;;19.17;;
9007;SDS011;62813;51.424;6.762;2024-03-22T03:26:42;31.53;;;19.73;;
9007;SDS011;62813;51.424;6.762;2024-03-22T03:29:08;31.47;;;18.87;;
9007;SDS011;62813;51.424;6.762;2024-03-22T03:31:33;26.57;;;18.03;;
9007;SDS011;62813;51.424;6.762;2024-03-22T03:33:59;30.13;;;18.93;;
9007;SDS011;62813;51.424;6.762;2024-03-22T03:36:24;30.80;;;18.87;;
9007;SDS011;62813;51.424;6.762;2024-03-22T03:38:50;27.30;;;18.60;;
9007;SDS011;62813;51.424;6.762;2024-03-22T03:41:15;27.93;;;18.70;;
9007;SDS011;62813;51.424;6.762;2024-03-22T03:43:40;31.70;;;18.53;;
9007;SDS011;62813;51.424;6.762;2024-03-22T03:46:06;30.07;;;19.33;;
9007;SDS011;62813;51.424;6.762;2024-03-22T03:48:31;25.23;;;17.17;;
9007;SDS011;62813;51.424;6.762;2024-03-22T03:50:57;27.80;;;18.97;;
9007;SDS011;62813;51.424;6.762;2024-03-22T03:53:28;31.00;;;17.93;;
9007;SDS011;62813;51.424;6.762;2024-03-22T03:55:53;24.33;;;16.27;;
9007;SDS011;62813;51.424;6.762;2024-03-22T03:58:18;24.97;;;18.30;;
9007;SDS011;62813;51.424;6.762;2024-03-22T04:00:44;28.73;;;17.20;;
9007;SDS011;62813;51.424;6.762;2024-03-22T04:03:10;26.93;;;17.63;;
9007;SDS011;62813;51.424;6.762;2024-03-22T04:05:35;27.47;;;17.17;;
9007;SDS011;62813;51.424;6.762;2024-03-22T04:08:00;28.20;;;18.63;;
9007;SDS011;62813;51.424;6.762;2024-03-22T04:10:26;24.27;;;17.43;;
9007;SDS011;62813;51.424;6.762;2024-03-22T04:12:51;26.97;;;17.63;;
9007;SDS011;62813;51.424;6.762;2024-03-22T04:15:17;27.73;;;19.17;;
9007;SDS011;62813;51.424;6.762;2024-03-22T04:17:42;24.40;;;17.80;;
9007;SDS011;62813;51.424;6.762;2024-03-22T04:20:08;51.43;;;32.97;;
9007;SDS011;62813;51.424;6.762;2024-03-22T04:22:34;34.93;;;20.10;;
9007;SDS011;62813;51.424;6.762;2024-03-22T04:25:02;48.00;;;30.77;;
9007;SDS011;62813;51.424;6.762;2024-03-22T04:27:27;25.67;;;17.77;;
9007;SDS011;62813;51.424;6.762;2024-03-22T04:29:53;28.57;;;17.63;;
9007;SDS011;62813;51.424;6.762;2024-03-22T04:32:18;30.67;;;18.37;;
9007;SDS011;62813;51.424;6.762;2024-03-22T04:34:44;27.60;;;17.73;;
9007;SDS011;62813;51.424;6.762;2024-03-22T04:37:09;30.43;;;18.20;;
9007;SDS011;62813;51.424;6.762;2024-03-22T04:39:37;28.10;;;17.13;;
9007;SDS011;62813;51.424;6.762;2024-03-22T04:42:02;28.77;;;18.27;;
9007;SDS011;62813;51.424;6.762;2024-03-22T04:44:28;29.97;;;18.33;;
9007;SDS011;62813;51.424;6.762;2024-03-22T04:46:56;27.77;;;18.60;;
9007;SDS011;62813;51.424;6.762;2024-03-22T04:49:22;27.87;;;17.87;;
9007;SDS011;62813;51.424;6.762;2024-03-22T04:51:47;25.20;;;17.17;;
9007;SDS011;62813;51.424;6.762;2024-03-22T04:54:13;26.37;;;17.20;;
9007;SDS011;62813;51.424;6.762;2024-03-22T04:56:39;26.57;;;17.00;;
9007;SDS011;62813;51.424;6.762;2024-03-22T04:59:04;27.67;;;18.40;;
9007;SDS011;62813;51.424;6.762;2024-03-22T05:01:30;24.50;;;16.63;;
9007;SDS011;62813;51.424;6.762;2024-03-22T05:03:55;23.20;;;16.90;;
9007;SDS011;62813;51.424;6.762;2024-03-22T05:06:21;24.60;;;17.43;;
9007;SDS011;62813;51.424;6.762;2024-03-22T05:08:46;25.03;;;17.00;;
9007;SDS011;62813;51.424;6.762;2024-03-22T05:11:11;43.63;;;28.97;;
9007;SDS011;62813;51.424;6.762;2024-03-22T05:13:37;31.77;;;21.37;;
9007;SDS011;62813;51.424;6.762;2024-03-22T05:16:04;25.97;;;18.17;;
9007;SDS011;62813;51.424;6.762;2024-03-22T05:18:30;28.07;;;17.40;;
9007;SDS011;62813;51.424;6.762;2024-03-22T05:20:55;27.13;;;18.77;;
9007;SDS011;62813;51.424;6.762;2024-03-22T05:23:21;26.60;;;18.40;;
9007;SDS011;62813;51.424;6.762;2024-03-22T05:25:46;27.67;;;18.10;;
9007;SDS011;62813;51.424;6.762;2024-03-22T05:28:12;28.40;;;18.87;;
9007;SDS011;62813;51.424;6.762;2024-03-22T05:30:37;25.37;;;18.20;;
9007;SDS011;62813;51.424;6.762;2024-03-22T05:33:03;25.20;;;17.80;;
9007;SDS011;62813;51.424;6.762;2024-03-22T05:35:28;33.80;;;19.57;;
9007;SDS011;62813;51.424;6.762;2024-03-22T05:37:54;29.17;;;18.57;;
9007;SDS011;62813;51.424;6.762;2024-03-22T05:40:19;26.83;;;18.23;;
9007;SDS011;62813;51.424;6.762;2024-03-22T05:42:44;29.43;;;18.30;;
9007;SDS011;62813;51.424;6.762;2024-03-22T05:45:10;25.43;;;18.33;;
9007;SDS011;62813;51.424;6.762;2024-03-22T05:47:35;28.37;;;18.07;;
9007;SDS011;62813;51.424;6.762;2024-03-22T05:50:02;30.93;;;19.93;;
9007;SDS011;62813;51.424;6.762;2024-03-22T05:52:28;31.23;;;19.90;;
9007;SDS011;62813;51.424;6.762;2024-03-22T05:54:54;34.60;;;21.70;;
9007;SDS011;62813;51.424;6.762;2024-03-22T05:57:20;30.03;;;18.77;;
9007;SDS011;62813;51.424;6.762;2024-03-22T05:59:46;28.60;;;18.83;;
9007;SDS011;62813;51.424;6.762;2024-03-22T06:02:11;33.03;;;19.90;;
9007;SDS011;62813;51.424;6.762;2024-03-22T06:04:37;27.60;;;18.60;;
9007;SDS011;62813;51.424;6.762;2024-03-22T06:07:02;26.97;;;18.40;;
9007;SDS011;62813;51.424;6.762;2024-03-22T06:09:29;34.40;;;18.43;;
9007;SDS011;62813;51.424;6.762;2024-03-22T06:12:14;30.37;;;19.03;;
9007;SDS011;62813;51.424;6.762;2024-03-22T06:14:40;32.97;;;18.37;;
9007;SDS011;62813;51.424;6.762;2024-03-22T06:17:06;37.50;;;22.47;;
9007;SDS011;62813;51.424;6.762;2024-03-22T06:19:31;40.90;;;26.53;;
9007;SDS011;62813;51.424;6.762;2024-03-22T06:21:56;27.90;;;18.40;;
9007;SDS011;62813;51.424;6.762;2024-03-22T06:24:22;23.53;;;17.70;;
9007;SDS011;62813;51.424;6.762;2024-03-22T06:26:47;24.57;;;16.87;;
9007;SDS011;62813;51.424;6.762;2024-03-22T06:29:15;23.20;;;17.33;;
9007;SDS011;62813;51.424;6.762;2024-03-22T06:31:41;22.93;;;16.07;;
9007;SDS011;62813;51.424;6.762;2024-03-22T06:34:07;24.17;;;16.57;;
9007;SDS011;62813;51.424;6.762;2024-03-22T06:36:32;22.97;;;16.27;;
9007;SDS011;62813;51.424;6.762;2024-03-22T06:38:58;23.27;;;16.00;;
9007;SDS011;62813;51.424;6.762;2024-03-22T06:41:24;23.50;;;16.57;;
9007;SDS011;62813;51.424;6.762;2024-03-22T06:43:51;24.27;;;14.90;;
9007;SDS011;62813;51.424;6.762;2024-03-22T06:46:16;24.97;;;16.43;;
9007;SDS011;62813;51.424;6.762;2024-03-22T06:48:42;22.17;;;15.90;;
9007;SDS011;62813;51.424;6.762;2024-03-22T06:51:07;21.60;;;15.57;;
9007;SDS011;62813;51.424;6.762;2024-03-22T06:53:33;23.90;;;16.97;;
9007;SDS011;62813;51.424;6.762;2024-03-22T06:55:58;22.13;;;17.73;;
9007;SDS011;62813;51.424;6.762;2024-03-22T06:58:24;22.10;;;15.33;;
9007;SDS011;62813;51.424;6.762;2024-03-22T07:00:50;20.83;;;15.37;;
9007;SDS011;62813;51.424;6.762;2024-03-22T07:03:16;21.33;;;14.87;;
9007;SDS011;62813;51.424;6.762;2024-03-22T07:05:42;20.63;;;15.10;;
9007;SDS011;62813;51.424;6.762;2024-03-22T07:08:08;21.77;;;15.03;;
9007;SDS011;62813;51.424;6.762;2024-03-22T07:10:33;20.50;;;14.83;;
9007;SDS011;62813;51.424;6.762;2024-03-22T07:12:59;19.70;;;14.90;;
9007;SDS011;62813;51.424;6.762;2024-03-22T07:15:24;20.10;;;14.23;;
9007;SDS011;62813;51.424;6.762;2024-03-22T07:17:50;20.20;;;14.50;;
9007;SDS011;62813;51.424;6.762;2024-03-22T07:20:16;20.87;;;14.67;;
9007;SDS011;62813;51.424;6.762;2024-03-22T07:22:41;18.77;;;13.77;;
9007;SDS011;62813;51.424;6.762;2024-03-22T07:25:07;21.73;;;14.53;;
9007;SDS011;62813;51.424;6.762;2024-03-22T07:27:35;20.83;;;16.03;;
9007;SDS011;62813;51.424;6.762;2024-03-22T07:30:03;20.60;;;14.37;;
9007;SDS011;62813;51.424;6.762;2024-03-22T07:32:29;20.40;;;15.00;;
9007;SDS011;62813;51.424;6.762;2024-03-22T07:34:55;24.63;;;17.77;;
9007;SDS011;62813;51.424;6.762;2024-03-22T07:37:20;23.30;;;16.17;;
9007;SDS011;62813;51.424;6.762;2024-03-22T07:39:45;20.17;;;14.60;;
9007;SDS011;62813;51.424;6.762;2024-03-22T07:42:11;22.70;;;16.03;;
9007;SDS011;62813;51.424;6.762;2024-03-22T07:44:36;21.20;;;17.03;;
9007;SDS011;62813;51.424;6.762;2024-03-22T07:47:02;17.97;;;13.60;;
9007;SDS011;62813;51.424;6.762;2024-03-22T07:49:27;18.30;;;13.30;;
9007;SDS011;62813;51.424;6.762;2024-03-22T07:51:53;17.00;;;13.37;;
9007;SDS011;62813;51.424;6.762;2024-03-22T07:54:18;17.07;;;12.23;;
9007;SDS011;62813;51.424;6.762;2024-03-22T07:56:44;15.50;;;12.73;;
9007;SDS011;62813;51.424;6.762;2024-03-22T07:59:09;18.37;;;13.50;;
9007;SDS011;62813;51.424;6.762;2024-03-22T08:01:34;17.90;;;12.87;;
9007;SDS011;62813;51.424;6.762;2024-03-22T08:04:00;17.23;;;12.47;;
9007;SDS011;62813;51.424;6.762;2024-03-22T08:08:55;16.37;;;12.03;;
9007;SDS011;62813;51.424;6.762;2024-03-22T08:11:20;19.83;;;12.27;;
9007;SDS011;62813;51.424;6.762;2024-03-22T08:13:46;17.53;;;12.47;;
9007;SDS011;62813;51.424;6.762;2024-03-22T08:16:12;20.67;;;11.97;;
9007;SDS011;62813;51.424;6.762;2024-03-22T08:18:37;14.47;;;10.93;;
9007;SDS011;62813;51.424;6.762;2024-03-22T08:21:02;20.00;;;11.67;;
9007;SDS011;62813;51.424;6.762;2024-03-22T08:23:28;18.07;;;12.57;;
9007;SDS011;62813;51.424;6.762;2024-03-22T08:25:53;14.93;;;11.50;;
9007;SDS011;62813;51.424;6.762;2024-03-22T08:28:19;17.97;;;11.37;;
9007;SDS011;62813;51.424;6.762;2024-03-22T08:30:44;21.77;;;12.27;;
9007;SDS011;62813;51.424;6.762;2024-03-22T08:33:10;16.47;;;11.40;;
9007;SDS011;62813;51.424;6.762;2024-03-22T08:35:36;17.70;;;11.10;;
9007;SDS011;62813;51.424;6.762;2024-03-22T08:38:02;18.83;;;10.57;;
9007;SDS011;62813;51.424;6.762;2024-03-22T08:40:28;19.80;;;10.70;;
9007;SDS011;62813;51.424;6.762;2024-03-22T08:42:53;16.30;;;9.80;;
9007;SDS011;62813;51.424;6.762;2024-03-22T08:45:19;17.23;;;10.43;;
9007;SDS011;62813;51.424;6.762;2024-03-22T08:47:44;17.00;;;10.20;;
9007;SDS011;62813;51.424;6.762;2024-03-22T08:50:12;15.13;;;10.83;;
9007;SDS011;62813;51.424;6.762;2024-03-22T08:52:38;19.07;;;13.77;;
9007;SDS011;62813;51.424;6.762;2024-03-22T08:55:03;16.17;;;11.20;;
9007;SDS011;62813;51.424;6.762;2024-03-22T08:57:31;15.23;;;10.17;;
9007;SDS011;62813;51.424;6.762;2024-03-22T08:59:56;26.53;;;10.20;;
9007;SDS011;62813;51.424;6.762;2024-03-22T09:02:22;23.23;;;13.87;;
9007;SDS011;62813;51.424;6.762;2024-03-22T09:04:47;16.57;;;10.30;;
9007;SDS011;62813;51.424;6.762;2024-03-22T09:07:12;14.87;;;9.27;;
9007;SDS011;62813;51.424;6.762;2024-03-22T09:09:38;12.17;;;9.20;;
9007;SDS011;62813;51.424;6.762;2024-03-22T09:12:03;12.73;;;9.40;;
9007;SDS011;62813;51.424;6.762;2024-03-22T09:14:29;13.67;;;9.37;;
9007;SDS011;62813;51.424;6.762;2024-03-22T09:16:54;15.60;;;9.63;;
9007;SDS011;62813;51.424;6.762;2024-03-22T09:19:20;11.80;;;8.90;;
9007;SDS011;62813;51.424;6.762;2024-03-22T09:21:45;12.60;;;8.70;;
9007;SDS011;62813;51.424;6.762;2024-03-22T09:24:11;12.97;;;8.40;;
9007;SDS011;62813;51.424;6.762;2024-03-22T09:26:36;12.70;;;9.50;;
9007;SDS011;62813;51.424;6.762;2024-03-22T09:29:02;15.70;;;8.90;;
9007;SDS011;62813;51.424;6.762;2024-03-22T09:31:29;17.70;;;9.27;;
9007;SDS011;62813;51.424;6.762;2024-03-22T09:33:56;11.53;;;8.60;;
9007;SDS011;62813;51.424;6.762;2024-03-22T09:36:21;16.33;;;8.63;;
9007;SDS011;62813;51.424;6.762;2024-03-22T09:38:47;17.17;;;8.80;;
9007;SDS011;62813;51.424;6.762;2024-03-22T09:41:13;11.77;;;8.53;;
9007;SDS011;62813;51.424;6.762;2024-03-22T09:43:39;13.03;;;8.60;;
9007;SDS011;62813;51.424;6.762;2024-03-22T09:46:05;13.33;;;9.03;;
9007;SDS011;62813;51.424;6.762;2024-03-22T09:48:30;11.40;;;8.53;;
9007;SDS011;62813;51.424;6.762;2024-03-22T09:50:57;14.80;;;9.57;;
9007;SDS011;62813;51.424;6.762;2024-03-22T09:53:22;11.77;;;8.23;;
9007;SDS011;62813;51.424;6.762;2024-03-22T09:55:51;13.60;;;8.67;;
9007;SDS011;62813;51.424;6.762;2024-03-22T09:58:17;12.07;;;8.30;;
9007;SDS011;62813;51.424;6.762;2024-03-22T10:00:43;12.97;;;8.10;;
9007;SDS011;62813;51.424;6.762;2024-03-22T10:03:09;12.30;;;7.83;;
9007;SDS011;62813;51.424;6.762;2024-03-22T10:05:35;10.63;;;8.10;;
9007;SDS011;62813;51.424;6.762;2024-03-22T10:08:00;14.43;;;9.00;;
9007;SDS011;62813;51.424;6.762;2024-03-22T10:10:27;14.87;;;6.83;;
9007;SDS011;62813;51.424;6.762;2024-03-22T10:12:52;12.33;;;7.80;;
9007;SDS011;62813;51.424;6.762;2024-03-22T10:15:18;13.43;;;9.00;;
9007;SDS011;62813;51.424;6.762;2024-03-22T10:17:43;10.67;;;8.00;;
9007;SDS011;62813;51.424;6.762;2024-03-22T10:20:12;13.03;;;8.17;;
9007;SDS011;62813;51.424;6.762;2024-03-22T10:22:48;11.87;;;8.13;;
9007;SDS011;62813;51.424;6.762;2024-03-22T10:25:14;10.70;;;8.00;;
9007;SDS011;62813;51.424;6.762;2024-03-22T10:27:40;11.73;;;7.97;;
9007;SDS011;62813;51.424;6.762;2024-03-22T10:30:08;11.83;;;8.67;;
9007;SDS011;62813;51.424;6.762;2024-03-22T10:32:33;13.47;;;8.53;;
9007;SDS011;62813;51.424;6.762;2024-03-22T10:35:01;13.27;;;8.67;;
9007;SDS011;62813;51.424;6.762;2024-03-22T10:37:30;12.97;;;9.13;;
9007;SDS011;62813;51.424;6.762;2024-03-22T10:39:56;16.40;;;8.17;;
9007;SDS011;62813;51.424;6.762;2024-03-22T10:42:22;13.13;;;8.93;;
9007;SDS011;62813;51.424;6.762;2024-03-22T10:44:48;10.37;;;8.20;;
9007;SDS011;62813;51.424;6.762;2024-03-22T10:47:13;12.77;;;8.70;;
9007;SDS011;62813;51.424;6.762;2024-03-22T10:49:40;9.93;;;7.83;;
9007;SDS011;62813;51.424;6.762;2024-03-22T10:52:06;13.17;;;9.37;;
9007;SDS011;62813;51.424;6.762;2024-03-22T10:54:39;13.57;;;9.80;;
9007;SDS011;62813;51.424;6.762;2024-03-22T10:57:05;12.10;;;8.07;;
9007;SDS011;62813;51.424;6.762;2024-03-22T10:59:35;15.70;;;8.87;;
9007;SDS011;62813;51.424;6.762;2024-03-22T11:02:04;14.77;;;9.10;;
9007;SDS011;62813;51.424;6.762;2024-03-22T11:04:30;15.23;;;8.30;;
9007;SDS011;62813;51.424;6.762;2024-03-22T11:06:58;12.37;;;8.30;;
9007;SDS011;62813;51.424;6.762;2024-03-22T11:09:27;10.37;;;7.50;;
9007;SDS011;62813;51.424;6.762;2024-03-22T11:11:53;11.40;;;7.93;;
9007;SDS011;62813;51.424;6.762;2024-03-22T11:14:19;9.77;;;7.40;;
9007;SDS011;62813;51.424;6.762;2024-03-22T11:16:46;14.73;;;7.87;;
9007;SDS011;62813;51.424;6.762;2024-03-22T11:19:11;10.53;;;7.70;;
9007;SDS011;62813;51.424;6.762;2024-03-22T11:21:37;12.73;;;7.87;;
9007;SDS011;62813;51.424;6.762;2024-03-22T11:24:03;9.40;;;6.83;;
9007;SDS011;62813;51.424;6.762;2024-03-22T11:26:29;11.27;;;7.90;;
9007;SDS011;62813;51.424;6.762;2024-03-22T11:28:54;13.40;;;7.77;;
9007;SDS011;62813;51.424;6.762;2024-03-22T11:31:20;11.73;;;7.37;;
9007;SDS011;62813;51.424;6.762;2024-03-22T11:33:50;9.20;;;6.93;;
9007;SDS011;62813;51.424;6.762;2024-03-22T11:36:17;14.73;;;8.13;;
9007;SDS011;62813;51.424;6.762;2024-03-22T11:38:42;10.57;;;8.60;;
9007;SDS011;62813;51.424;6.762;2024-03-22T11:41:08;12.80;;;8.73;;
9007;SDS011;62813;51.424;6.762;2024-03-22T11:43:34;10.83;;;7.53;;
9007;SDS011;62813;51.424;6.762;2024-03-22T11:46:00;11.10;;;7.93;;
9007;SDS011;62813;51.424;6.762;2024-03-22T11:48:27;15.70;;;13.67;;
9007;SDS011;62813;51.424;6.762;2024-03-22T11:50:52;13.87;;;9.70;;
9007;SDS011;62813;51.424;6.762;2024-03-22T11:53:18;16.17;;;12.43;;
9007;SDS011;62813;51.424;6.762;2024-03-22T11:55:43;12.53;;;9.80;;
9007;SDS011;62813;51.424;6.762;2024-03-22T11:58:09;14.63;;;11.43;;
9007;SDS011;62813;51.424;6.762;2024-03-22T12:00:35;14.90;;;11.13;;
9007;SDS011;62813;51.424;6.762;2024-03-22T12:03:00;18.40;;;13.27;;
9007;SDS011;62813;51.424;6.762;2024-03-22T12:05:29;13.40;;;9.97;;
9007;SDS011;62813;51.424;6.762;2024-03-22T12:07:55;14.07;;;8.80;;
9007;SDS011;62813;51.424;6.762;2024-03-22T12:10:20;10.83;;;9.07;;
9007;SDS011;62813;51.424;6.762;2024-03-22T12:12:46;15.73;;;9.80;;
9007;SDS011;62813;51.424;6.762;2024-03-22T12:15:11;11.77;;;9.07;;
9007;SDS011;62813;51.424;6.762;2024-03-22T12:17:37;11.10;;;9.13;;
9007;SDS011;62813;51.424;6.762;2024-03-22T12:20:05;11.00;;;9.47;;
9007;SDS011;62813;51.424;6.762;2024-03-22T12:22:31;16.30;;;10.10;;
9007;SDS011;62813;51.424;6.762;2024-03-22T12:24:56;26.33;;;13.30;;
9007;SDS011;62813;51.424;6.762;2024-03-22T12:27:22;24.83;;;13.80;;
9007;SDS011;62813;51.424;6.762;2024-03-22T12:29:47;21.57;;;13.13;;
9007;SDS011;62813;51.424;6.762;2024-03-22T12:32:13;16.07;;;11.77;;
9007;SDS011;62813;51.424;6.762;2024-03-22T12:34:38;14.20;;;10.30;;
9007;SDS011;62813;51.424;6.762;2024-03-22T12:37:04;14.87;;;11.27;;
9007;SDS011;62813;51.424;6.762;2024-03-22T12:39:29;13.57;;;11.17;;
9007;SDS011;62813;51.424;6.762;2024-03-22T12:41:55;15.03;;;11.40;;
9007;SDS011;62813;51.424;6.762;2024-03-22T12:44:20;14.80;;;11.53;;
9007;SDS011;62813;51.424;6.762;2024-03-22T12:46:46;13.70;;;10.90;;
9007;SDS011;62813;51.424;6.762;2024-03-22T12:49:12;18.20;;;11.53;;
9007;SDS011;62813;51.424;6.762;2024-03-22T12:51:37;12.93;;;10.20;;
9007;SDS011;62813;51.424;6.762;2024-03-22T12:54:03;12.87;;;10.60;;
9007;SDS011;62813;51.424;6.762;2024-03-22T12:56:30;15.03;;;11.17;;
9007;SDS011;62813;51.424;6.762;2024-03-22T12:58:55;12.17;;;10.40;;
9007;SDS011;62813;51.424;6.762;2024-03-22T13:01:21;16.30;;;9.90;;
9007;SDS011;62813;51.424;6.762;2024-03-22T13:03:46;14.83;;;10.53;;
9007;SDS011;62813;51.424;6.762;2024-03-22T13:06:12;17.87;;;14.17;;
9007;SDS011;62813;51.424;6.762;2024-03-22T13:08:37;17.03;;;11.23;;
9007;SDS011;62813;51.424;6.762;2024-03-22T13:11:03;12.90;;;10.47;;
9007;SDS011;62813;51.424;6.762;2024-03-22T13:13:29;25.30;;;16.20;;
9007;SDS011;62813;51.424;6.762;2024-03-22T13:15:56;17.57;;;14.10;;
9007;SDS011;62813;51.424;6.762;2024-03-22T13:18:22;17.53;;;12.50;;
9007;SDS011;62813;51.424;6.762;2024-03-22T13:20:47;17.53;;;11.73;;
9007;SDS011;62813;51.424;6.762;2024-03-22T13:23:13;11.67;;;10.47;;
9007;SDS011;62813;51.424;6.762;2024-03-22T13:25:38;18.67;;;10.97;;
9007;SDS011;62813;51.424;6.762;2024-03-22T13:28:04;13.97;;;10.10;;
9007;SDS011;62813;51.424;6.762;2024-03-22T13:30:30;13.53;;;10.27;;
9007;SDS011;62813;51.424;6.762;2024-03-22T13:32:56;12.13;;;9.47;;
9007;SDS011;62813;51.424;6.762;2024-03-22T13:35:21;13.50;;;9.63;;
9007;SDS011;62813;51.424;6.762;2024-03-22T13:37:47;14.57;;;9.67;;
9007;SDS011;62813;51.424;6.762;2024-03-22T13:40:12;11.43;;;9.70;;
9007;SDS011;62813;51.424;6.762;2024-03-22T13:42:37;26.07;;;17.43;;
9007;SDS011;62813;51.424;6.762;2024-03-22T13:45:03;23.03;;;17.33;;
9007;SDS011;62813;51.424;6.762;2024-03-22T13:47:28;11.97;;;10.10;;
9007;SDS011;62813;51.424;6.762;2024-03-22T13:49:54;14.43;;;9.83;;
9007;SDS011;62813;51.424;6.762;2024-03-22T13:52:19;15.07;;;10.77;;
9007;SDS011;62813;51.424;6.762;2024-03-22T13:54:46;12.43;;;10.17;;
9007;SDS011;62813;51.424;6.762;2024-03-22T13:57:11;11.37;;;10.07;;
9007;SDS011;62813;51.424;6.762;2024-03-22T13:59:37;16.00;;;13.77;;
9007;SDS011;62813;51.424;6.762;2024-03-22T14:02:02;19.00;;;14.17;;
9007;SDS011;62813;51.424;6.762;2024-03-22T14:04:28;21.87;;;13.60;;
9007;SDS011;62813;51.424;6.762;2024-03-22T14:06:54;35.47;;;28.33;;
9007;SDS011;62813;51.424;6.762;2024-03-22T14:09:20;20.10;;;13.93;;
9007;SDS011;62813;51.424;6.762;2024-03-22T14:11:45;21.67;;;12.57;;
9007;SDS011;62813;51.424;6.762;2024-03-22T14:14:13;21.50;;;13.73;;
9007;SDS011;62813;51.424;6.762;2024-03-22T14:16:39;19.30;;;13.90;;
9007;SDS011;62813;51.424;6.762;2024-03-22T14:19:05;13.23;;;11.80;;
9007;SDS011;62813;51.424;6.762;2024-03-22T14:21:30;21.07;;;13.97;;
9007;SDS011;62813;51.424;6.762;2024-03-22T14:23:56;24.20;;;14.70;;
9007;SDS011;62813;51.424;6.762;2024-03-22T14:26:21;21.27;;;13.33;;
9007;SDS011;62813;51.424;6.762;2024-03-22T14:28:48;15.63;;;12.53;;
9007;SDS011;62813;51.424;6.762;2024-03-22T14:31:15;15.37;;;12.17;;